Time;durP1;ratioP1;P1;durP2;ratioP2;P2;SDS_P1;SDS_P2;PMS_P1;PMS_P2;Temp;Humidity;BMP_temperature;BMP_pressure;BME280_temperature;BME280_humidity;BME280_pressure;Samples;Min_cycle;Max_cycle;Signal;HPM_P1;HPM_P2
2022/06/20 00:00:06;;;;;;;;;9.00;8.25;;;;;25.05;42.71;98157.63;6203580;28;97800;-69
2022/06/20 00:03:20;;;;;;;;;8.00;8.00;;;;;25.02;43.20;98154.38;6259036;27;96954;-69
2022/06/20 00:06:25;;;;;;;;;9.00;7.20;;;;;25.01;42.02;98147.28;6238653;27;96650;-70
2022/06/20 00:09:28;;;;;;;;;7.00;7.00;;;;;25.04;42.08;98148.56;6241067;27;96705;-71
2022/06/20 00:12:31;;;;;;;;;7.20;7.00;;;;;25.05;41.75;98143.84;6242346;27;97237;-68
2022/06/20 00:15:37;;;;;;;;;8.00;7.00;;;;;25.07;41.79;98141.56;6264395;27;97253;-69
2022/06/20 00:18:40;;;;;;;;;7.00;7.00;;;;;25.02;42.37;98146.13;6266684;27;96582;-69
2022/06/20 00:21:44;;;;;;;;;8.00;6.00;;;;;24.96;42.71;98147.47;6209973;28;98097;-69
2022/06/20 00:24:47;;;;;;;;;7.20;7.00;;;;;24.86;43.18;98145.06;6259673;27;96592;-70
2022/06/20 00:27:53;;;;;;;;;7.00;7.00;;;;;24.76;43.53;98139.13;6266120;27;97568;-69
2022/06/20 00:30:58;;;;;;;;;9.00;8.00;;;;;24.67;43.85;98152.13;6236513;27;97294;-70
2022/06/20 00:34:02;;;;;;;;;7.67;7.00;;;;;24.61;44.34;98151.50;6264989;27;97022;-69
2022/06/20 00:37:07;;;;;;;;;7.25;7.25;;;;;24.57;44.42;98154.13;6265701;27;96667;-68
2022/06/20 00:40:24;;;;;;;;;8.00;7.00;;;;;24.55;44.31;98166.59;6247710;27;97530;-68
2022/06/20 00:43:32;;;;;;;;;7.40;7.40;;;;;24.53;44.13;98166.16;6231031;27;97421;-69
2022/06/20 00:47:01;;;;;;;;;7.00;7.00;;;;;24.45;44.32;98165.03;6235870;27;96656;-68
2022/06/20 00:50:28;;;;;;;;;8.00;7.00;;;;;24.44;44.83;98171.66;6246525;27;97261;-69
2022/06/20 00:53:58;;;;;;;;;7.00;7.00;;;;;24.43;44.32;98177.53;6264989;27;97167;-68
2022/06/20 00:57:27;;;;;;;;;7.80;7.00;;;;;24.45;44.85;98175.22;6236454;27;97178;-69
2022/06/20 01:00:49;;;;;;;;;8.00;6.60;;;;;24.46;43.71;98174.91;6251403;27;96597;-70
2022/06/20 01:04:25;;;;;;;;;7.00;7.00;;;;;24.43;43.31;98181.09;6243746;27;96726;-71
2022/06/20 01:07:53;;;;;;;;;8.00;8.00;;;;;24.47;43.50;98171.03;6260885;27;96717;-68
2022/06/20 01:11:17;;;;;;;;;9.00;7.00;;;;;24.48;44.00;98171.84;6264971;27;97064;-70
2022/06/20 01:14:39;;;;;;;;;6.20;6.20;;;;;24.49;43.24;98165.16;6242964;27;97146;-70
2022/06/20 01:18:02;;;;;;;;;8.00;6.50;;;;;24.44;42.49;98174.41;6263172;27;97110;-68
2022/06/20 01:21:32;;;;;;;;;6.00;6.00;;;;;24.40;42.96;98173.47;6264524;27;97009;-70
2022/06/20 01:25:02;;;;;;;;;8.00;7.00;;;;;24.36;43.42;98172.50;6240271;27;97384;-71
2022/06/20 01:28:29;;;;;;;;;5.50;5.50;;;;;24.25;42.37;98159.41;6238752;27;97124;-70
2022/06/20 01:31:54;;;;;;;;;6.25;6.00;;;;;24.13;43.04;98157.31;6263430;27;96668;-72
2022/06/20 01:37:23;;;;;;;;;7.40;7.00;;;;;24.11;42.89;98156.84;6262629;27;97737;-70
2022/06/20 01:39:01;;;;;;;;;5.75;5.75;;;;;24.05;43.74;98164.44;6256691;27;97667;-70
2022/06/20 01:42:24;;;;;;;;;7.00;7.00;;;;;24.00;44.18;98148.09;6240347;27;97178;-70
2022/06/20 01:46:00;;;;;;;;;6.60;6.00;;;;;23.97;44.25;98162.53;6258480;27;96538;-69
2022/06/20 01:49:25;;;;;;;;;6.00;6.00;;;;;23.91;44.63;98155.56;6226303;27;97225;-70
2022/06/20 01:52:47;;;;;;;;;6.00;6.00;;;;;23.86;44.83;98136.47;6249767;27;96618;-70
2022/06/20 01:56:11;;;;;;;;;7.00;7.00;;;;;23.79;45.35;98155.44;6260213;27;97187;-70
2022/06/20 01:59:38;;;;;;;;;6.00;6.00;;;;;23.75;45.48;98143.44;6263103;27;96672;-72
2022/06/20 02:03:06;;;;;;;;;6.40;6.40;;;;;23.71;45.22;98136.97;6255333;27;97012;-70
2022/06/20 02:06:30;;;;;;;;;8.00;8.00;;;;;23.54;45.32;98137.00;6244824;27;97327;-71
2022/06/20 02:09:52;;;;;;;;;6.40;5.00;;;;;23.52;45.40;98129.06;6264253;27;97115;-70
2022/06/20 02:13:17;;;;;;;;;7.00;7.00;;;;;23.57;45.79;98128.91;6257663;27;96466;-70
2022/06/20 02:16:45;;;;;;;;;6.60;6.60;;;;;23.59;45.09;98117.56;6254370;27;97119;-68
2022/06/20 02:20:13;;;;;;;;;5.75;5.00;;;;;23.65;43.72;98130.03;6259365;27;97731;-71
2022/06/20 02:23:40;;;;;;;;;5.60;5.00;;;;;23.75;43.03;98138.75;6264408;27;97170;-71
2022/06/20 02:27:05;;;;;;;;;6.00;5.00;;;;;23.82;43.14;98153.97;6240326;27;97109;-72
2022/06/20 02:30:29;;;;;;;;;6.00;5.00;;;;;23.99;42.70;98143.75;6236971;27;97105;-69
2022/06/20 02:33:53;;;;;;;;;6.75;6.25;;;;;24.11;41.80;98137.56;6258532;27;96651;-69
2022/06/20 02:37:23;;;;;;;;;5.60;5.60;;;;;24.17;42.05;98126.06;6262932;27;96600;-70
2022/06/20 02:40:46;;;;;;;;;7.00;7.00;;;;;24.02;43.54;98137.59;6236507;27;97072;-69
2022/06/20 02:44:14;;;;;;;;;5.00;5.00;;;;;23.92;44.59;98126.09;6258505;27;96951;-71
2022/06/20 02:47:40;;;;;;;;;6.00;6.00;;;;;23.80;45.09;98131.47;6244231;27;97174;-69
2022/06/20 02:51:07;;;;;;;;;6.00;6.00;;;;;23.64;45.29;98134.72;6262745;27;97023;-72
2022/06/20 02:54:35;;;;;;;;;7.40;6.00;;;;;23.57;45.24;98136.34;6259528;27;97186;-71
2022/06/20 02:58:04;;;;;;;;;7.80;7.00;;;;;23.54;46.50;98135.06;6261496;27;97001;-68
2022/06/20 03:01:36;;;;;;;;;7.00;7.00;;;;;23.50;46.02;98131.34;6254935;27;98038;-69
2022/06/20 03:04:58;;;;;;;;;7.00;7.00;;;;;23.48;46.62;98136.34;6263004;27;96626;-71
2022/06/20 03:08:21;;;;;;;;;7.00;6.40;;;;;23.50;46.28;98131.34;6248480;27;97163;-71
2022/06/20 03:11:45;;;;;;;;;7.00;7.00;;;;;23.59;46.42;98142.34;6254761;27;97151;-71
2022/06/20 03:15:08;;;;;;;;;6.00;6.00;;;;;23.64;47.06;98143.00;6261983;27;97339;-69
2022/06/20 03:18:32;;;;;;;;;5.00;5.00;;;;;23.70;46.11;98135.38;6230435;27;97128;-70
2022/06/20 03:21:57;;;;;;;;;6.00;6.00;;;;;23.80;45.76;98148.00;6259265;27;97050;-70
2022/06/20 03:25:20;;;;;;;;;6.00;6.00;;;;;23.90;46.58;98147.63;6259726;27;97261;-72
2022/06/20 03:28:44;;;;;;;;;6.60;6.00;;;;;24.01;45.11;98138.72;6253469;27;96980;-69
2022/06/20 03:32:06;;;;;;;;;5.00;5.00;;;;;24.19;44.40;98134.00;6235748;27;97536;-70
2022/06/20 03:35:31;;;;;;;;;5.80;5.80;;;;;24.37;43.56;98143.84;6231293;27;97109;-71
2022/06/20 03:38:54;;;;;;;;;6.60;6.60;;;;;24.50;42.93;98159.34;6260724;27;97270;-71
2022/06/20 03:42:17;;;;;;;;;8.00;6.25;;;;;24.60;44.12;98156.22;6259625;27;97758;-71
2022/06/20 03:45:46;;;;;;;;;7.00;6.00;;;;;24.70;42.22;98137.69;6228783;27;97139;-69
2022/06/20 03:49:25;;;;;;;;;7.00;6.00;;;;;24.79;42.00;98139.25;6261441;27;96674;-68
2022/06/20 03:52:52;;;;;;;;;6.00;6.00;;;;;24.94;41.83;98144.22;6269810;27;97113;-69
2022/06/20 03:56:19;;;;;;;;;6.00;6.00;;;;;25.11;41.36;98146.09;6267752;27;97110;-71
2022/06/20 03:59:45;;;;;;;;;8.00;7.00;;;;;25.22;41.84;98144.53;6269631;27;96550;-71
2022/06/20 04:03:14;;;;;;;;;6.60;6.60;;;;;25.33;42.28;98155.97;6268927;27;98196;-69
2022/06/20 04:06:40;;;;;;;;;6.00;6.00;;;;;25.43;42.48;98150.88;6269103;27;96870;-72
2022/06/20 04:13:55;;;;;;;;;5.25;5.00;;;;;25.70;40.47;98148.75;6269024;27;97174;-70
2022/06/20 04:21:19;;;;;;;;;6.00;6.00;;;;;26.16;41.53;98170.53;6248911;27;97104;-71
2022/06/20 04:24:51;;;;;;;;;6.00;5.00;;;;;26.36;39.99;98168.91;6262527;27;97407;-70
2022/06/20 04:28:21;;;;;;;;;6.00;6.00;;;;;26.47;39.47;98153.50;6257881;27;96667;-70
2022/06/20 04:31:48;;;;;;;;;8.75;6.75;;;;;26.67;38.36;98168.38;6265694;27;97246;-71
2022/06/20 04:35:16;;;;;;;;;7.00;7.00;;;;;26.83;37.99;98158.22;6268300;27;96965;-70
2022/06/20 04:38:52;;;;;;;;;6.00;6.00;;;;;27.12;38.07;98165.53;6247553;27;97095;-70
2022/06/20 04:42:22;;;;;;;;;8.00;7.00;;;;;27.32;37.93;98164.53;6268412;27;96471;-70
2022/06/20 04:45:50;;;;;;;;;5.00;5.00;;;;;27.42;36.63;98171.56;6268788;27;97195;-70
2022/06/20 04:49:15;;;;;;;;;6.20;6.00;;;;;27.55;36.65;98181.50;6262982;27;97786;-70
2022/06/20 04:52:37;;;;;;;;;7.80;7.00;;;;;27.77;36.98;98186.50;6247131;27;96884;-70
2022/06/20 04:56:04;;;;;;;;;7.50;6.50;;;;;27.93;35.89;98186.56;6262614;27;97699;-71
2022/06/20 04:59:31;;;;;;;;;9.00;7.00;;;;;27.99;35.46;98183.19;6267285;27;96670;-72
2022/06/20 05:02:55;;;;;;;;;7.00;7.00;;;;;27.93;35.56;98181.03;6260258;27;97045;-71
2022/06/20 05:06:23;;;;;;;;;8.00;7.00;;;;;28.01;35.60;98194.72;6234579;27;97133;-70
2022/06/20 05:09:53;;;;;;;;;6.60;6.60;;;;;28.14;35.99;98201.06;6249016;27;98353;-69
2022/06/20 05:13:21;;;;;;;;;8.75;8.00;;;;;28.22;35.25;98205.63;6257457;27;97418;-71
2022/06/20 05:16:48;;;;;;;;;7.00;7.00;;;;;28.34;35.07;98197.25;6235357;27;97205;-70
2022/06/20 05:20:24;;;;;;;;;7.00;6.25;;;;;28.52;35.14;98206.03;6260237;27;96601;-72
2022/06/20 05:23:48;;;;;;;;;7.67;7.00;;;;;28.65;35.99;98204.81;6262245;27;97178;-67
2022/06/20 05:27:17;;;;;;;;;7.60;7.00;;;;;28.81;36.02;98207.63;6235946;27;96656;-67
2022/06/20 05:30:42;;;;;;;;;8.00;7.00;;;;;29.00;35.20;98206.88;6262212;27;97658;-71
2022/06/20 05:34:12;;;;;;;;;7.00;7.00;;;;;28.99;34.63;98188.63;6258031;27;97006;-68
2022/06/20 05:37:26;;;;;;;;;10.00;9.00;;;;;29.17;34.78;98204.56;6243031;27;97532;-70
2022/06/20 05:40:35;;;;;;;;;7.00;7.00;;;;;29.26;34.45;98201.59;6254035;27;97549;-68
2022/06/20 05:43:38;;;;;;;;;7.80;6.20;;;;;29.33;34.58;98203.72;6242400;27;96803;-68
2022/06/20 05:46:48;;;;;;;;;7.60;7.60;;;;;29.49;34.65;98204.50;6243180;27;99603;-69
2022/06/20 05:49:58;;;;;;;;;7.00;7.00;;;;;29.68;34.60;98201.75;6254849;27;96797;-65
2022/06/20 05:53:05;;;;;;;;;6.00;6.00;;;;;29.75;33.91;98209.44;6223267;27;96890;-68
2022/06/20 05:56:17;;;;;;;;;8.00;6.00;;;;;29.78;33.86;98209.53;6245842;27;97971;-71
2022/06/20 05:59:37;;;;;;;;;8.00;8.00;;;;;29.71;34.13;98187.16;6261764;27;97471;-70
2022/06/20 06:02:46;;;;;;;;;8.00;8.00;;;;;29.95;34.80;98200.00;6260896;27;97582;-71
2022/06/20 06:05:57;;;;;;;;;9.00;9.00;;;;;30.15;34.11;98203.56;6244695;27;96782;-66
2022/06/20 06:09:05;;;;;;;;;7.00;7.00;;;;;30.24;33.94;98193.03;6262022;27;98159;-71
2022/06/20 06:12:14;;;;;;;;;7.00;7.00;;;;;30.37;32.70;98197.25;6225068;27;97286;-67
2022/06/20 06:15:24;;;;;;;;;8.00;8.00;;;;;30.47;32.92;98205.81;6235208;27;97158;-71
2022/06/20 06:18:33;;;;;;;;;7.00;7.00;;;;;30.58;32.67;98206.03;6260497;27;96768;-70
2022/06/20 06:21:37;;;;;;;;;6.60;6.00;;;;;30.66;32.75;98202.19;6250760;27;96826;-71
2022/06/20 06:24:46;;;;;;;;;6.60;5.60;;;;;30.79;32.44;98194.47;6244101;27;96542;-71
2022/06/20 06:27:53;;;;;;;;;7.00;7.00;;;;;30.65;31.53;98175.53;6252117;27;98293;-70
2022/06/20 06:31:02;;;;;;;;;7.00;6.20;;;;;30.79;31.82;98181.31;6253251;27;96688;-69
2022/06/20 06:34:16;;;;;;;;;8.00;7.00;;;;;30.91;31.83;98178.38;6247636;27;96667;-68
2022/06/20 06:37:32;;;;;;;;;6.40;6.40;;;;;31.10;32.04;98182.25;6253872;27;96676;-66
2022/06/20 06:40:41;;;;;;;;;7.00;7.00;;;;;31.23;31.17;98178.88;6224296;27;98213;-68
2022/06/20 06:43:46;;;;;;;;;7.50;7.00;;;;;31.24;30.67;98174.91;6238473;27;97576;-72
2022/06/20 06:46:54;;;;;;;;;7.00;6.00;;;;;31.27;30.92;98178.97;6257235;27;97023;-69
2022/06/20 06:50:03;;;;;;;;;7.25;7.00;;;;;31.38;31.58;98172.34;6261523;27;97139;-69
2022/06/20 06:53:15;;;;;;;;;9.00;8.00;;;;;31.24;30.54;98133.16;6232166;27;96657;-68
2022/06/20 06:56:25;;;;;;;;;8.20;6.20;;;;;31.42;29.27;98166.84;6259575;27;96698;-70
2022/06/20 06:59:35;;;;;;;;;6.00;5.00;;;;;31.39;29.35;98170.38;6249878;27;96657;-70
2022/06/20 07:02:43;;;;;;;;;7.00;6.00;;;;;31.42;29.64;98169.63;6238480;27;99531;-66
2022/06/20 07:05:53;;;;;;;;;7.00;6.00;;;;;31.51;28.64;98153.44;6231131;27;96733;-66
2022/06/20 07:09:23;;;;;;;;;7.00;6.00;;;;;31.67;28.32;98156.84;6244248;27;96641;-67
2022/06/20 07:12:34;;;;;;;;;6.00;6.00;;;;;31.63;28.37;98149.63;6253475;27;96628;-69
2022/06/20 07:15:38;;;;;;;;;6.00;6.00;;;;;31.80;28.13;98152.66;6259503;27;96530;-69
2022/06/20 07:18:44;;;;;;;;;7.00;5.50;;;;;32.06;28.86;98148.94;6259959;27;97277;-69
2022/06/20 07:21:49;;;;;;;;;6.75;6.50;;;;;32.31;27.89;98154.03;6221551;27;97713;-66
2022/06/20 07:24:55;;;;;;;;;6.00;6.00;;;;;32.45;26.75;98152.19;6237360;27;97614;-70
2022/06/20 07:28:05;;;;;;;;;6.00;6.00;;;;;32.31;27.22;98138.09;6225257;27;96772;-69
2022/06/20 07:31:15;;;;;;;;;7.00;6.25;;;;;32.39;27.60;98137.00;6239260;27;96977;-71
2022/06/20 07:34:23;;;;;;;;;6.00;6.00;;;;;32.59;28.05;98157.13;6243649;27;96950;-68
2022/06/20 07:37:32;;;;;;;;;7.00;7.00;;;;;32.78;27.54;98148.53;6259937;27;97471;-71
2022/06/20 07:40:40;;;;;;;;;7.40;7.00;;;;;32.97;27.42;98147.50;6261038;27;97118;-71
2022/06/20 07:43:50;;;;;;;;;6.00;6.00;;;;;33.03;26.78;98146.75;6259163;27;96573;-73
2022/06/20 07:46:58;;;;;;;;;7.33;7.00;;;;;33.15;27.13;98137.25;6259787;27;97596;-70
2022/06/20 07:50:07;;;;;;;;;6.60;5.60;;;;;33.37;28.25;98144.59;6251208;27;97414;-68
2022/06/20 07:53:16;;;;;;;;;6.40;6.00;;;;;33.69;26.98;98135.59;6252071;27;97264;-65
2022/06/20 07:56:37;;;;;;;;;7.00;6.00;;;;;33.97;26.42;98132.91;6252332;27;98123;-69
2022/06/20 07:59:45;;;;;;;;;7.00;6.00;;;;;34.26;26.86;98119.81;6247574;27;98045;-68
2022/06/20 08:02:53;;;;;;;;;6.00;6.00;;;;;34.54;26.68;98122.69;6231636;27;97408;-69
2022/06/20 08:06:01;;;;;;;;;6.00;6.00;;;;;34.81;25.44;98123.09;6241930;27;99239;-67
2022/06/20 08:09:11;;;;;;;;;7.00;7.00;;;;;35.02;25.80;98120.28;6253989;27;97546;-67
2022/06/20 08:12:20;;;;;;;;;6.60;5.60;;;;;35.08;24.21;98120.69;6256322;27;97994;-68
2022/06/20 08:15:27;;;;;;;;;4.00;4.00;;;;;35.26;25.55;98115.06;6251651;27;96723;-69
2022/06/20 08:18:31;;;;;;;;;7.00;6.00;;;;;35.53;25.50;98105.00;6252659;27;97157;-66
2022/06/20 08:21:38;;;;;;;;;5.00;5.00;;;;;35.79;25.20;98103.69;6232471;27;99695;-69
2022/06/20 08:24:46;;;;;;;;;7.00;7.00;;;;;35.78;24.42;98094.47;6250055;27;97044;-69
2022/06/20 08:27:55;;;;;;;;;5.80;5.80;;;;;35.77;24.65;98083.69;6229840;27;96768;-68
2022/06/20 08:31:05;;;;;;;;;7.00;6.00;;;;;35.91;24.78;98058.34;6260027;27;96709;-68
2022/06/20 08:34:18;;;;;;;;;6.80;6.00;;;;;36.25;24.32;98070.59;6244991;27;99498;-67
2022/06/20 08:37:26;;;;;;;;;7.00;6.00;;;;;36.32;24.94;98064.09;6256713;27;97424;-69
2022/06/20 08:41:07;;;;;;;;;6.60;6.60;;;;;36.39;24.47;98050.84;6237039;27;97868;-69
2022/06/20 08:44:48;;;;;;;;;5.00;5.00;;;;;36.52;24.61;98055.94;6235301;27;97953;-70
2022/06/20 08:48:26;;;;;;;;;7.60;6.80;;;;;36.55;24.46;98046.69;6243369;27;97522;-72
2022/06/20 08:52:10;;;;;;;;;8.00;7.00;;;;;36.15;23.95;98032.19;6261592;27;97583;-72
2022/06/20 08:55:51;;;;;;;;;6.50;5.50;;;;;36.08;24.56;98022.97;6234909;27;97393;-73
2022/06/20 08:59:07;;;;;;;;;5.20;5.20;;;;;35.95;25.22;98017.06;6238091;27;97051;-69
2022/06/20 09:02:28;;;;;;;;;8.00;7.00;;;;;35.81;25.49;98001.13;6255796;27;97400;-72
2022/06/20 09:05:52;;;;;;;;;5.00;5.00;;;;;35.77;24.46;97997.53;6260138;27;97218;-72
2022/06/20 09:09:26;;;;;;;;;6.25;6.00;;;;;35.95;24.99;97992.59;6226936;27;98810;-73
2022/06/20 09:12:55;;;;;;;;;8.00;8.00;;;;;36.37;25.91;97991.47;6245070;27;97229;-69
2022/06/20 09:16:08;;;;;;;;;5.20;5.00;;;;;36.63;23.97;97995.69;6249943;27;98039;-72
2022/06/20 09:19:32;;;;;;;;;6.00;6.00;;;;;36.80;23.21;97994.69;6255659;27;97546;-74
2022/06/20 09:23:00;;;;;;;;;6.00;6.00;;;;;37.05;23.61;97994.44;6259709;27;97499;-72
2022/06/20 09:26:09;;;;;;;;;7.00;6.00;;;;;37.47;24.85;97981.09;6261680;27;97615;-74
2022/06/20 09:29:31;;;;;;;;;6.00;6.00;;;;;37.88;24.55;97980.91;6235458;27;97063;-73
2022/06/20 09:33:07;;;;;;;;;7.00;6.50;;;;;38.13;23.74;97964.47;6257945;27;96956;-70
2022/06/20 09:36:52;;;;;;;;;7.00;6.00;;;;;38.36;23.20;97960.88;6258146;27;97643;-70
2022/06/20 09:40:10;;;;;;;;;6.00;5.60;;;;;38.37;21.56;97959.63;6189817;28;97779;-71
2022/06/20 09:43:23;;;;;;;;;6.40;6.40;;;;;38.08;22.18;97957.31;6247577;27;97484;-72
2022/06/20 09:46:34;;;;;;;;;5.00;5.00;;;;;38.04;23.73;97941.72;6225297;27;96843;-70
2022/06/20 09:49:48;;;;;;;;;7.00;6.80;;;;;38.02;22.58;97939.31;6252240;27;96595;-71
2022/06/20 09:53:04;;;;;;;;;8.00;7.00;;;;;38.09;22.29;97939.22;6252108;27;97457;-72
2022/06/20 09:56:16;;;;;;;;;6.00;6.00;;;;;38.28;22.79;97925.63;6217990;27;97875;-70
2022/06/20 09:59:29;;;;;;;;;6.00;6.00;;;;;38.17;23.63;97925.78;6235639;27;97650;-69
2022/06/20 10:02:46;;;;;;;;;7.00;7.00;;;;;38.37;23.70;97915.38;6245903;27;96966;-73
2022/06/20 10:05:56;;;;;;;;;6.00;6.00;;;;;38.55;22.64;97915.09;6253195;27;97928;-72
2022/06/20 10:09:10;;;;;;;;;7.00;7.00;;;;;38.58;23.26;97898.13;6256956;27;97443;-73
2022/06/20 10:12:22;;;;;;;;;6.00;6.00;;;;;38.67;23.86;97896.75;6228576;27;96997;-71
2022/06/20 10:15:37;;;;;;;;;7.00;7.00;;;;;38.48;24.09;97885.03;6243496;27;97821;-71
2022/06/20 10:18:52;;;;;;;;;7.33;7.33;;;;;38.50;23.73;97888.25;6237383;27;99564;-74
2022/06/20 10:22:06;;;;;;;;;8.00;8.00;;;;;38.56;24.07;97883.66;6261641;27;96521;-72
2022/06/20 10:25:34;;;;;;;;;9.00;8.25;;;;;38.89;24.54;97886.69;6248654;27;97815;-73
2022/06/20 10:28:46;;;;;;;;;8.00;7.00;;;;;39.19;24.67;97888.47;6254535;27;96773;-72
2022/06/20 10:32:09;;;;;;;;;7.40;7.40;;;;;39.37;24.27;97881.22;6224541;27;97573;-72
2022/06/20 10:35:18;;;;;;;;;8.00;8.00;;;;;39.22;23.27;97888.38;6219767;27;97893;-73
2022/06/20 10:38:36;;;;;;;;;8.00;7.00;;;;;39.29;24.62;97885.38;6260836;27;97422;-71
2022/06/20 10:41:53;;;;;;;;;7.00;7.00;;;;;39.40;23.11;97893.63;6238406;28;96534;-72
2022/06/20 10:45:11;;;;;;;;;9.60;9.00;;;;;39.56;23.67;97892.88;6254108;27;96657;-71
2022/06/20 10:48:36;;;;;;;;;7.00;7.00;;;;;39.59;22.75;97892.78;6250621;27;97496;-70
2022/06/20 10:51:46;;;;;;;;;7.00;7.00;;;;;39.03;23.38;97829.22;6257835;27;97667;-72
2022/06/20 10:55:04;;;;;;;;;7.00;7.00;;;;;39.50;23.04;97881.31;6261544;27;97810;-72
2022/06/20 10:58:22;;;;;;;;;8.00;8.00;;;;;39.69;23.60;97891.72;6251547;27;98345;-69
2022/06/20 11:01:35;;;;;;;;;6.25;6.25;;;;;39.76;22.51;97885.97;6251716;27;97701;-71
2022/06/20 11:05:00;;;;;;;;;7.00;7.00;;;;;39.98;22.15;97891.84;6252099;27;97474;-72
2022/06/20 11:08:17;;;;;;;;;7.00;7.00;;;;;39.82;20.96;97897.50;6248257;27;98062;-71
2022/06/20 11:11:38;;;;;;;;;6.20;6.00;;;;;39.70;22.57;97892.53;6241222;27;96798;-70
2022/06/20 11:14:53;;;;;;;;;6.00;6.00;;;;;39.77;21.26;97903.69;6254547;27;97352;-73
2022/06/20 11:18:06;;;;;;;;;9.00;8.00;;;;;39.84;22.52;97883.75;6240620;27;96894;-71
2022/06/20 11:21:18;;;;;;;;;7.00;7.00;;;;;39.89;22.06;97886.03;6231554;27;96918;-73
2022/06/20 11:24:38;;;;;;;;;6.00;6.00;;;;;40.16;22.62;97883.72;6252444;27;97435;-71
2022/06/20 11:28:09;;;;;;;;;8.00;7.60;;;;;40.46;22.23;97893.06;6237246;28;97504;-72
2022/06/20 11:31:22;;;;;;;;;7.00;7.00;;;;;40.33;21.34;97890.16;6255682;27;96683;-71
2022/06/20 11:34:58;;;;;;;;;8.60;7.00;;;;;40.17;22.53;97876.81;6222957;27;98154;-71
2022/06/20 11:38:26;;;;;;;;;8.00;8.00;;;;;39.99;23.36;97875.72;6190833;27;97309;-74
2022/06/20 11:41:36;;;;;;;;;7.60;7.00;;;;;39.85;21.33;97876.88;6260297;27;97275;-70
2022/06/20 11:45:03;;;;;;;;;7.00;7.00;;;;;39.87;23.01;97876.44;6258805;27;97401;-70
2022/06/20 11:48:36;;;;;;;;;9.00;9.00;;;;;39.77;21.75;97875.47;6250225;27;97438;-71
2022/06/20 11:51:51;;;;;;;;;9.00;7.00;;;;;39.92;22.89;97862.59;6248358;27;96627;-69
2022/06/20 11:55:08;;;;;;;;;8.00;7.40;;;;;40.12;22.48;97857.63;6235081;27;97508;-69
2022/06/20 11:58:22;;;;;;;;;8.00;8.00;;;;;39.99;21.83;97856.75;6247924;27;97434;-69
2022/06/20 12:01:32;;;;;;;;;7.00;6.50;;;;;40.00;21.38;97866.81;6218573;28;96708;-70
2022/06/20 12:04:37;;;;;;;;;7.00;6.00;;;;;40.18;21.62;97867.16;6225817;27;99479;-69
2022/06/20 12:08:11;;;;;;;;;8.00;7.75;;;;;39.72;22.45;97836.47;6241462;27;97529;-70
2022/06/20 12:11:33;;;;;;;;;8.00;7.00;;;;;39.83;22.43;97839.84;6250109;27;97487;-71
2022/06/20 12:14:44;;;;;;;;;7.00;7.00;;;;;40.15;23.27;97847.47;6244241;27;97439;-71
2022/06/20 12:18:00;;;;;;;;;9.00;7.00;;;;;40.53;22.95;97839.97;6247033;27;97522;-71
2022/06/20 12:24:28;;;;;;;;;7.80;6.80;;;;;41.05;21.52;97847.41;6193450;27;97361;-71
2022/06/20 12:27:32;;;;;;;;;8.00;8.00;;;;;41.21;21.57;97858.59;6244873;27;100052;-72
2022/06/20 12:30:35;;;;;;;;;9.00;9.00;;;;;41.15;21.86;97891.53;6254872;27;96630;-70
2022/06/20 12:33:45;;;;;;;;;8.00;7.00;;;;;40.90;21.28;97923.34;6240435;27;97747;-71
2022/06/20 12:36:57;;;;;;;;;9.00;8.00;;;;;40.65;21.22;97937.38;6256276;27;96839;-69
2022/06/20 12:40:05;;;;;;;;;6.00;6.00;;;;;40.28;21.85;97944.34;6241087;27;98084;-68
2022/06/20 12:43:13;;;;;;;;;8.60;8.00;;;;;39.86;22.32;97963.13;6258580;27;96932;-69
2022/06/20 12:46:31;;;;;;;;;10.80;9.40;;;;;39.33;22.18;97978.41;6258130;27;97258;-70
2022/06/20 12:49:46;;;;;;;;;7.00;7.00;;;;;38.58;22.45;97995.91;6230780;27;96641;-70
2022/06/20 12:53:02;;;;;;;;;6.00;5.00;;;;;37.95;21.57;98003.34;6244312;27;98182;-70
2022/06/20 12:56:15;;;;;;;;;5.60;5.00;;;;;37.53;22.32;98001.91;6235121;27;98361;-71
2022/06/20 12:59:48;;;;;;;;;5.00;4.00;;;;;37.12;21.55;98011.25;6236352;27;99959;-72
2022/06/20 13:03:35;;;;;;;;;5.00;4.00;;;;;36.68;21.79;98011.28;6255899;27;97471;-71
2022/06/20 13:07:25;;;;;;;;;3.00;2.20;;;;;36.57;21.98;98000.13;6140895;28;97181;-71
2022/06/20 13:10:41;;;;;;;;;3.00;3.00;;;;;36.55;22.32;98002.56;6139188;28;98453;-71
2022/06/20 13:14:05;;;;;;;;;3.00;3.00;;;;;36.53;22.64;98001.38;6133135;28;99634;-69
2022/06/20 13:17:24;;;;;;;;;3.00;2.00;;;;;36.59;22.35;97994.91;6132868;28;96612;-71
2022/06/20 13:20:40;;;;;;;;;2.40;2.40;;;;;36.55;22.62;97984.94;6153434;28;97058;-69
2022/06/20 13:24:15;;;;;;;;;2.00;2.00;;;;;36.35;22.74;97996.72;6153521;28;97401;-70
2022/06/20 13:27:43;;;;;;;;;3.00;2.00;;;;;36.29;22.95;97992.78;6151038;28;96598;-70
2022/06/20 13:30:57;;;;;;;;;3.00;2.00;;;;;36.20;23.32;97983.22;6149123;28;97488;-70
2022/06/20 13:34:08;;;;;;;;;5.00;5.00;;;;;36.10;24.00;97973.66;6144698;28;97916;-70
2022/06/20 13:37:29;;;;;;;;;2.75;2.75;;;;;36.15;23.50;97990.09;6177400;27;96783;-71
2022/06/20 13:40:49;;;;;;;;;2.00;1.67;;;;;36.12;23.15;97999.28;6255331;27;97926;-70
2022/06/20 13:44:05;;;;;;;;;2.00;2.00;;;;;36.02;23.03;98005.75;6253193;27;96662;-70
2022/06/20 13:47:21;;;;;;;;;2.00;2.00;;;;;36.09;23.84;98002.13;6257840;27;97724;-71
2022/06/20 13:50:30;;;;;;;;;3.00;3.00;;;;;36.05;23.97;98000.16;6248226;27;96566;-71
2022/06/20 13:53:44;;;;;;;;;1.20;1.20;;;;;36.03;23.65;98007.38;6247002;27;99020;-69
2022/06/20 13:57:01;;;;;;;;;2.00;2.00;;;;;36.04;23.74;98018.19;6262260;27;96675;-70
2022/06/20 14:00:18;;;;;;;;;2.00;2.00;;;;;35.98;24.26;98017.03;6251013;27;97539;-70
2022/06/20 14:03:25;;;;;;;;;3.00;2.00;;;;;36.05;24.07;98016.97;6233625;27;97111;-71
2022/06/20 14:06:44;;;;;;;;;3.00;3.00;;;;;36.07;24.78;98015.78;6258769;27;96563;-70
2022/06/20 14:09:53;;;;;;;;;3.00;3.00;;;;;35.91;24.34;98019.09;6258494;27;97410;-70
2022/06/20 14:13:02;;;;;;;;;4.00;3.00;;;;;35.81;24.65;98026.38;6220921;27;96622;-72
2022/06/20 14:16:22;;;;;;;;;2.00;2.00;;;;;35.64;24.60;98038.44;6260508;27;97456;-70
2022/06/20 14:19:31;;;;;;;;;4.00;4.00;;;;;35.52;24.79;98059.34;6253629;27;96617;-71
2022/06/20 14:22:40;;;;;;;;;4.00;4.00;;;;;35.36;24.96;98060.97;6263062;27;97361;-69
2022/06/20 14:25:47;;;;;;;;;4.00;4.00;;;;;34.93;25.19;98086.28;6227935;27;96667;-71
2022/06/20 14:28:52;;;;;;;;;4.00;4.00;;;;;34.76;25.89;98110.28;6255235;27;96673;-70
2022/06/20 14:32:06;;;;;;;;;3.00;3.00;;;;;34.35;26.66;98125.84;6234738;27;97477;-69
2022/06/20 14:35:26;;;;;;;;;4.20;3.20;;;;;34.08;26.93;98138.53;6253277;27;97420;-69
2022/06/20 14:38:37;;;;;;;;;4.00;4.00;;;;;33.74;27.77;98157.59;6259092;27;97045;-71
2022/06/20 14:41:46;;;;;;;;;4.60;3.00;;;;;33.24;28.77;98178.81;6260829;27;97429;-70
2022/06/20 14:45:00;;;;;;;;;4.00;4.00;;;;;32.61;33.18;98191.00;6254741;27;98288;-69
2022/06/20 14:48:16;;;;;;;;;6.00;4.00;;;;;32.12;34.93;98163.41;6261828;27;97469;-70
2022/06/20 14:51:32;;;;;;;;;4.00;4.00;;;;;31.76;36.30;98123.94;6259654;27;97994;-71
2022/06/20 14:54:46;;;;;;;;;5.00;5.00;;;;;31.29;38.28;98135.63;6236534;27;96638;-69
2022/06/20 14:57:55;;;;;;;;;4.00;4.00;;;;;30.96;40.69;98132.72;6255623;27;96945;-71
2022/06/20 15:01:08;;;;;;;;;5.20;5.00;;;;;30.51;42.24;98141.91;6256274;27;97979;-71
2022/06/20 15:04:19;;;;;;;;;5.00;5.00;;;;;30.23;42.93;98111.59;6249594;27;96705;-69
2022/06/20 15:07:30;;;;;;;;;6.00;4.40;;;;;29.92;46.07;98115.38;6238069;27;98484;-70
2022/06/20 15:10:39;;;;;;;;;5.40;5.00;;;;;29.45;45.34;98117.53;6252196;27;96925;-69
2022/06/20 15:13:52;;;;;;;;;3.75;3.00;;;;;28.93;47.33;98137.38;6239756;27;97456;-70
2022/06/20 15:17:07;;;;;;;;;6.00;6.00;;;;;28.58;50.33;98117.84;6233605;27;96917;-68
2022/06/20 15:20:19;;;;;;;;;5.20;5.00;;;;;28.28;50.85;98109.97;6245508;27;96831;-69
2022/06/20 15:23:32;;;;;;;;;6.00;5.60;;;;;27.91;52.13;98098.25;6256727;27;97300;-67
2022/06/20 15:26:38;;;;;;;;;5.00;5.00;;;;;27.74;52.12;98076.44;6251590;27;98210;-71
2022/06/20 15:30:02;;;;;;;;;7.00;6.00;;;;;27.63;52.14;98055.94;6236702;27;98364;-70
2022/06/20 15:33:35;;;;;;;;;6.00;6.00;;;;;27.53;52.58;98048.94;6237626;27;97525;-68
2022/06/20 15:36:41;;;;;;;;;7.00;6.00;;;;;27.50;53.95;98026.72;6256815;27;97456;-70
2022/06/20 15:39:49;;;;;;;;;7.00;7.00;;;;;27.46;55.14;98009.16;6256623;27;97695;-70
2022/06/20 15:43:01;;;;;;;;;7.00;7.00;;;;;27.44;55.00;98022.53;6256119;27;97409;-68